sensor_id;sensor_type;location;lat;lon;timestamp;P1;durP1;ratioP1;P2;durP2;ratioP2
77466;SDS011;66564;42.482;25.548;2023-07-13T00:01:18;23.70;;;15.98;;
77466;SDS011;66564;42.482;25.548;2023-07-13T00:03:44;22.67;;;16.98;;
77466;SDS011;66564;42.482;25.548;2023-07-13T00:06:09;21.65;;;15.90;;
77466;SDS011;66564;42.482;25.548;2023-07-13T00:08:35;21.70;;;14.80;;
77466;SDS011;66564;42.482;25.548;2023-07-13T00:11:01;17.75;;;14.07;;
77466;SDS011;66564;42.482;25.548;2023-07-13T00:13:27;20.35;;;14.57;;
77466;SDS011;66564;42.482;25.548;2023-07-13T00:15:54;28.05;;;15.93;;
77466;SDS011;66564;42.482;25.548;2023-07-13T00:18:21;25.73;;;17.90;;
77466;SDS011;66564;42.482;25.548;2023-07-13T00:20:47;22.98;;;14.90;;
77466;SDS011;66564;42.482;25.548;2023-07-13T00:23:13;23.45;;;15.50;;
77466;SDS011;66564;42.482;25.548;2023-07-13T00:25:39;19.52;;;14.30;;
77466;SDS011;66564;42.482;25.548;2023-07-13T00:28:05;27.27;;;17.05;;
77466;SDS011;66564;42.482;25.548;2023-07-13T00:30:30;20.70;;;16.05;;
77466;SDS011;66564;42.482;25.548;2023-07-13T00:32:56;18.98;;;14.30;;
77466;SDS011;66564;42.482;25.548;2023-07-13T00:35:22;20.88;;;14.48;;
77466;SDS011;66564;42.482;25.548;2023-07-13T00:37:48;21.00;;;14.82;;
77466;SDS011;66564;42.482;25.548;2023-07-13T00:40:14;22.13;;;15.18;;
77466;SDS011;66564;42.482;25.548;2023-07-13T00:42:40;17.52;;;13.90;;
77466;SDS011;66564;42.482;25.548;2023-07-13T00:46:09;26.13;;;17.02;;
77466;SDS011;66564;42.482;25.548;2023-07-13T00:47:52;21.02;;;15.52;;
77466;SDS011;66564;42.482;25.548;2023-07-13T00:50:17;22.33;;;15.93;;
77466;SDS011;66564;42.482;25.548;2023-07-13T00:52:47;21.80;;;15.77;;
77466;SDS011;66564;42.482;25.548;2023-07-13T00:55:15;23.80;;;15.55;;
77466;SDS011;66564;42.482;25.548;2023-07-13T00:57:43;20.05;;;15.45;;
77466;SDS011;66564;42.482;25.548;2023-07-13T01:00:09;20.80;;;15.50;;
77466;SDS011;66564;42.482;25.548;2023-07-13T01:02:37;20.17;;;13.90;;
77466;SDS011;66564;42.482;25.548;2023-07-13T01:05:10;21.77;;;15.70;;
77466;SDS011;66564;42.482;25.548;2023-07-13T01:07:40;21.45;;;14.93;;
77466;SDS011;66564;42.482;25.548;2023-07-13T01:10:09;20.52;;;15.23;;
77466;SDS011;66564;42.482;25.548;2023-07-13T01:12:35;19.08;;;14.77;;
77466;SDS011;66564;42.482;25.548;2023-07-13T01:15:01;21.02;;;14.82;;
77466;SDS011;66564;42.482;25.548;2023-07-13T01:17:28;21.05;;;14.05;;
77466;SDS011;66564;42.482;25.548;2023-07-13T01:19:54;22.08;;;14.48;;
77466;SDS011;66564;42.482;25.548;2023-07-13T01:22:19;20.80;;;14.70;;
77466;SDS011;66564;42.482;25.548;2023-07-13T01:24:50;23.50;;;15.88;;
77466;SDS011;66564;42.482;25.548;2023-07-13T01:27:17;19.50;;;14.90;;
77466;SDS011;66564;42.482;25.548;2023-07-13T01:29:45;20.65;;;14.05;;
77466;SDS011;66564;42.482;25.548;2023-07-13T01:32:17;21.02;;;13.23;;
77466;SDS011;66564;42.482;25.548;2023-07-13T01:34:49;22.42;;;14.52;;
77466;SDS011;66564;42.482;25.548;2023-07-13T01:37:19;35.83;;;15.75;;
77466;SDS011;66564;42.482;25.548;2023-07-13T01:39:45;19.80;;;15.77;;
77466;SDS011;66564;42.482;25.548;2023-07-13T01:42:11;22.20;;;15.15;;
77466;SDS011;66564;42.482;25.548;2023-07-13T01:44:36;22.23;;;15.55;;
77466;SDS011;66564;42.482;25.548;2023-07-13T01:47:02;21.35;;;15.55;;
77466;SDS011;66564;42.482;25.548;2023-07-13T01:49:27;23.92;;;15.55;;
77466;SDS011;66564;42.482;25.548;2023-07-13T01:51:53;23.00;;;15.20;;
77466;SDS011;66564;42.482;25.548;2023-07-13T01:54:18;22.58;;;15.23;;
77466;SDS011;66564;42.482;25.548;2023-07-13T01:56:44;19.38;;;14.32;;
77466;SDS011;66564;42.482;25.548;2023-07-13T01:59:09;22.70;;;16.25;;
77466;SDS011;66564;42.482;25.548;2023-07-13T02:01:35;20.40;;;14.77;;
77466;SDS011;66564;42.482;25.548;2023-07-13T02:04:00;20.02;;;15.23;;
77466;SDS011;66564;42.482;25.548;2023-07-13T02:06:26;22.08;;;15.23;;
77466;SDS011;66564;42.482;25.548;2023-07-13T02:08:51;23.45;;;15.57;;
77466;SDS011;66564;42.482;25.548;2023-07-13T02:11:17;29.02;;;13.45;;
77466;SDS011;66564;42.482;25.548;2023-07-13T02:13:43;23.20;;;15.63;;
77466;SDS011;66564;42.482;25.548;2023-07-13T02:16:08;21.10;;;14.75;;
77466;SDS011;66564;42.482;25.548;2023-07-13T02:18:34;20.48;;;12.90;;
77466;SDS011;66564;42.482;25.548;2023-07-13T02:21:00;21.83;;;15.13;;
77466;SDS011;66564;42.482;25.548;2023-07-13T02:23:25;25.08;;;14.77;;
77466;SDS011;66564;42.482;25.548;2023-07-13T02:25:55;27.33;;;15.23;;
77466;SDS011;66564;42.482;25.548;2023-07-13T02:28:24;21.77;;;15.52;;
77466;SDS011;66564;42.482;25.548;2023-07-13T02:30:49;25.20;;;16.70;;
77466;SDS011;66564;42.482;25.548;2023-07-13T02:33:15;18.98;;;15.27;;
77466;SDS011;66564;42.482;25.548;2023-07-13T02:35:40;24.63;;;15.77;;
77466;SDS011;66564;42.482;25.548;2023-07-13T02:38:06;27.20;;;15.10;;
77466;SDS011;66564;42.482;25.548;2023-07-13T02:40:32;21.73;;;15.85;;
77466;SDS011;66564;42.482;25.548;2023-07-13T02:43:01;24.80;;;15.05;;
77466;SDS011;66564;42.482;25.548;2023-07-13T02:45:27;25.63;;;15.63;;
77466;SDS011;66564;42.482;25.548;2023-07-13T02:47:53;23.42;;;15.25;;
77466;SDS011;66564;42.482;25.548;2023-07-13T02:50:19;25.38;;;13.93;;
77466;SDS011;66564;42.482;25.548;2023-07-13T02:52:44;23.45;;;14.75;;
77466;SDS011;66564;42.482;25.548;2023-07-13T02:55:10;22.63;;;15.20;;
77466;SDS011;66564;42.482;25.548;2023-07-13T02:57:35;20.67;;;14.25;;
77466;SDS011;66564;42.482;25.548;2023-07-13T03:00:02;27.17;;;14.85;;
77466;SDS011;66564;42.482;25.548;2023-07-13T03:02:30;19.52;;;14.18;;
77466;SDS011;66564;42.482;25.548;2023-07-13T03:04:57;23.58;;;14.93;;
77466;SDS011;66564;42.482;25.548;2023-07-13T03:07:22;22.35;;;14.23;;
77466;SDS011;66564;42.482;25.548;2023-07-13T03:09:48;27.27;;;15.55;;
77466;SDS011;66564;42.482;25.548;2023-07-13T03:12:13;22.33;;;15.00;;
77466;SDS011;66564;42.482;25.548;2023-07-13T03:14:39;22.88;;;13.23;;
77466;SDS011;66564;42.482;25.548;2023-07-13T03:17:04;26.55;;;16.42;;
77466;SDS011;66564;42.482;25.548;2023-07-13T03:19:29;20.98;;;15.50;;
77466;SDS011;66564;42.482;25.548;2023-07-13T03:21:55;18.80;;;14.75;;
77466;SDS011;66564;42.482;25.548;2023-07-13T03:24:20;20.25;;;15.00;;
77466;SDS011;66564;42.482;25.548;2023-07-13T03:26:48;25.42;;;14.90;;
77466;SDS011;66564;42.482;25.548;2023-07-13T03:29:14;28.27;;;14.77;;
77466;SDS011;66564;42.482;25.548;2023-07-13T03:31:39;22.13;;;15.05;;
77466;SDS011;66564;42.482;25.548;2023-07-13T03:34:05;23.42;;;14.93;;
77466;SDS011;66564;42.482;25.548;2023-07-13T03:36:31;29.60;;;15.63;;
77466;SDS011;66564;42.482;25.548;2023-07-13T03:38:58;28.48;;;16.10;;
77466;SDS011;66564;42.482;25.548;2023-07-13T03:41:26;27.45;;;14.40;;
77466;SDS011;66564;42.482;25.548;2023-07-13T03:43:52;21.92;;;14.38;;
77466;SDS011;66564;42.482;25.548;2023-07-13T03:46:18;35.00;;;17.27;;
77466;SDS011;66564;42.482;25.548;2023-07-13T03:48:44;33.67;;;16.15;;
77466;SDS011;66564;42.482;25.548;2023-07-13T03:51:11;32.30;;;15.10;;
77466;SDS011;66564;42.482;25.548;2023-07-13T03:53:40;23.38;;;16.83;;
77466;SDS011;66564;42.482;25.548;2023-07-13T03:56:07;30.77;;;15.70;;
77466;SDS011;66564;42.482;25.548;2023-07-13T03:58:34;20.02;;;15.73;;
77466;SDS011;66564;42.482;25.548;2023-07-13T04:01:02;23.08;;;16.27;;
77466;SDS011;66564;42.482;25.548;2023-07-13T04:03:30;20.75;;;15.05;;
77466;SDS011;66564;42.482;25.548;2023-07-13T04:05:57;23.92;;;16.38;;
77466;SDS011;66564;42.482;25.548;2023-07-13T04:08:28;41.70;;;16.95;;
77466;SDS011;66564;42.482;25.548;2023-07-13T04:10:55;40.50;;;16.38;;
77466;SDS011;66564;42.482;25.548;2023-07-13T04:13:21;30.50;;;14.68;;
77466;SDS011;66564;42.482;25.548;2023-07-13T04:15:46;22.20;;;13.85;;
77466;SDS011;66564;42.482;25.548;2023-07-13T04:18:11;21.90;;;15.57;;
77466;SDS011;66564;42.482;25.548;2023-07-13T04:20:37;30.83;;;16.40;;
77466;SDS011;66564;42.482;25.548;2023-07-13T04:23:03;45.05;;;18.00;;
77466;SDS011;66564;42.482;25.548;2023-07-13T04:25:28;63.63;;;18.75;;
77466;SDS011;66564;42.482;25.548;2023-07-13T04:27:54;45.10;;;17.27;;
77466;SDS011;66564;42.482;25.548;2023-07-13T04:30:20;30.77;;;16.75;;
77466;SDS011;66564;42.482;25.548;2023-07-13T04:32:45;24.13;;;15.35;;
77466;SDS011;66564;42.482;25.548;2023-07-13T04:35:11;20.08;;;13.90;;
77466;SDS011;66564;42.482;25.548;2023-07-13T04:37:36;25.42;;;15.48;;
77466;SDS011;66564;42.482;25.548;2023-07-13T04:40:02;26.05;;;14.18;;
77466;SDS011;66564;42.482;25.548;2023-07-13T04:42:28;25.40;;;15.93;;
77466;SDS011;66564;42.482;25.548;2023-07-13T04:44:54;20.83;;;14.05;;
77466;SDS011;66564;42.482;25.548;2023-07-13T04:47:20;21.80;;;14.30;;
77466;SDS011;66564;42.482;25.548;2023-07-13T04:49:45;22.77;;;15.80;;
77466;SDS011;66564;42.482;25.548;2023-07-13T04:52:11;20.42;;;14.13;;
77466;SDS011;66564;42.482;25.548;2023-07-13T04:54:38;23.20;;;15.30;;
77466;SDS011;66564;42.482;25.548;2023-07-13T04:57:04;26.70;;;17.98;;
77466;SDS011;66564;42.482;25.548;2023-07-13T04:59:33;21.88;;;15.32;;
77466;SDS011;66564;42.482;25.548;2023-07-13T05:01:59;26.80;;;15.82;;
77466;SDS011;66564;42.482;25.548;2023-07-13T05:04:26;18.30;;;12.90;;
77466;SDS011;66564;42.482;25.548;2023-07-13T05:06:52;25.48;;;14.60;;
77466;SDS011;66564;42.482;25.548;2023-07-13T05:09:17;23.77;;;16.58;;
77466;SDS011;66564;42.482;25.548;2023-07-13T05:11:43;21.73;;;15.48;;
77466;SDS011;66564;42.482;25.548;2023-07-13T05:14:08;18.23;;;14.48;;
77466;SDS011;66564;42.482;25.548;2023-07-13T05:16:35;20.15;;;16.20;;
77466;SDS011;66564;42.482;25.548;2023-07-13T05:19:01;20.13;;;13.77;;
77466;SDS011;66564;42.482;25.548;2023-07-13T05:21:27;18.27;;;14.60;;
77466;SDS011;66564;42.482;25.548;2023-07-13T05:23:52;24.40;;;15.35;;
77466;SDS011;66564;42.482;25.548;2023-07-13T05:26:18;22.45;;;15.55;;
77466;SDS011;66564;42.482;25.548;2023-07-13T05:28:44;20.70;;;13.52;;
77466;SDS011;66564;42.482;25.548;2023-07-13T05:31:09;19.95;;;14.43;;
77466;SDS011;66564;42.482;25.548;2023-07-13T05:33:35;20.30;;;14.57;;
77466;SDS011;66564;42.482;25.548;2023-07-13T05:36:01;18.02;;;13.77;;
77466;SDS011;66564;42.482;25.548;2023-07-13T05:38:27;20.70;;;14.48;;
77466;SDS011;66564;42.482;25.548;2023-07-13T05:40:53;29.63;;;14.82;;
77466;SDS011;66564;42.482;25.548;2023-07-13T05:43:20;22.08;;;14.82;;
77466;SDS011;66564;42.482;25.548;2023-07-13T05:45:46;21.50;;;14.38;;
77466;SDS011;66564;42.482;25.548;2023-07-13T05:48:12;29.67;;;16.13;;
77466;SDS011;66564;42.482;25.548;2023-07-13T05:50:38;27.13;;;15.20;;
77466;SDS011;66564;42.482;25.548;2023-07-13T05:53:03;24.63;;;14.55;;
77466;SDS011;66564;42.482;25.548;2023-07-13T05:55:29;30.55;;;14.57;;
77466;SDS011;66564;42.482;25.548;2023-07-13T05:57:54;17.48;;;13.02;;
77466;SDS011;66564;42.482;25.548;2023-07-13T06:00:20;29.98;;;13.63;;
77466;SDS011;66564;42.482;25.548;2023-07-13T06:02:45;35.53;;;13.45;;
77466;SDS011;66564;42.482;25.548;2023-07-13T06:05:11;17.58;;;12.90;;
77466;SDS011;66564;42.482;25.548;2023-07-13T06:07:37;18.92;;;13.60;;
77466;SDS011;66564;42.482;25.548;2023-07-13T06:10:03;28.52;;;13.48;;
77466;SDS011;66564;42.482;25.548;2023-07-13T06:12:30;21.02;;;13.07;;
77466;SDS011;66564;42.482;25.548;2023-07-13T06:14:55;22.55;;;13.57;;
77466;SDS011;66564;42.482;25.548;2023-07-13T06:17:21;27.33;;;13.63;;
77466;SDS011;66564;42.482;25.548;2023-07-13T06:19:46;23.27;;;14.20;;
77466;SDS011;66564;42.482;25.548;2023-07-13T06:22:12;19.75;;;12.60;;
77466;SDS011;66564;42.482;25.548;2023-07-13T06:24:38;18.45;;;12.93;;
77466;SDS011;66564;42.482;25.548;2023-07-13T06:27:03;17.10;;;13.90;;
77466;SDS011;66564;42.482;25.548;2023-07-13T06:29:29;21.52;;;13.57;;
77466;SDS011;66564;42.482;25.548;2023-07-13T06:31:54;17.63;;;13.00;;
77466;SDS011;66564;42.482;25.548;2023-07-13T06:34:19;19.30;;;12.95;;
77466;SDS011;66564;42.482;25.548;2023-07-13T06:36:45;16.92;;;13.57;;
77466;SDS011;66564;42.482;25.548;2023-07-13T06:39:10;16.08;;;12.15;;
77466;SDS011;66564;42.482;25.548;2023-07-13T06:41:36;18.48;;;13.07;;
77466;SDS011;66564;42.482;25.548;2023-07-13T06:44:03;16.52;;;12.77;;
77466;SDS011;66564;42.482;25.548;2023-07-13T06:46:29;24.98;;;13.13;;
77466;SDS011;66564;42.482;25.548;2023-07-13T06:48:55;17.17;;;13.02;;
77466;SDS011;66564;42.482;25.548;2023-07-13T06:51:21;15.98;;;12.15;;
77466;SDS011;66564;42.482;25.548;2023-07-13T06:53:48;16.50;;;12.15;;
77466;SDS011;66564;42.482;25.548;2023-07-13T06:56:15;15.88;;;12.60;;
77466;SDS011;66564;42.482;25.548;2023-07-13T06:58:40;16.23;;;12.30;;
77466;SDS011;66564;42.482;25.548;2023-07-13T07:01:06;16.60;;;12.25;;
77466;SDS011;66564;42.482;25.548;2023-07-13T07:03:31;20.83;;;12.45;;
77466;SDS011;66564;42.482;25.548;2023-07-13T07:08:45;19.30;;;13.65;;
77466;SDS011;66564;42.482;25.548;2023-07-13T07:11:12;15.18;;;11.82;;
77466;SDS011;66564;42.482;25.548;2023-07-13T07:13:39;17.25;;;12.48;;
77466;SDS011;66564;42.482;25.548;2023-07-13T07:16:05;16.90;;;13.20;;
77466;SDS011;66564;42.482;25.548;2023-07-13T07:18:30;17.98;;;12.90;;
77466;SDS011;66564;42.482;25.548;2023-07-13T07:20:56;25.05;;;14.30;;
77466;SDS011;66564;42.482;25.548;2023-07-13T07:23:22;19.88;;;12.88;;
77466;SDS011;66564;42.482;25.548;2023-07-13T07:25:47;23.95;;;15.93;;
77466;SDS011;66564;42.482;25.548;2023-07-13T07:28:14;18.98;;;13.85;;
77466;SDS011;66564;42.482;25.548;2023-07-13T07:30:43;18.50;;;13.48;;
77466;SDS011;66564;42.482;25.548;2023-07-13T07:33:09;19.90;;;13.57;;
77466;SDS011;66564;42.482;25.548;2023-07-13T07:35:34;23.88;;;15.40;;
77466;SDS011;66564;42.482;25.548;2023-07-13T07:38:00;18.05;;;13.60;;
77466;SDS011;66564;42.482;25.548;2023-07-13T07:40:25;21.05;;;13.68;;
77466;SDS011;66564;42.482;25.548;2023-07-13T07:42:51;16.48;;;13.45;;
77466;SDS011;66564;42.482;25.548;2023-07-13T07:45:17;16.60;;;12.02;;
77466;SDS011;66564;42.482;25.548;2023-07-13T07:47:42;17.77;;;14.32;;
77466;SDS011;66564;42.482;25.548;2023-07-13T07:50:08;19.23;;;12.88;;
77466;SDS011;66564;42.482;25.548;2023-07-13T07:52:34;22.38;;;13.30;;
77466;SDS011;66564;42.482;25.548;2023-07-13T07:54:59;18.60;;;13.82;;
77466;SDS011;66564;42.482;25.548;2023-07-13T07:57:25;14.52;;;12.15;;
77466;SDS011;66564;42.482;25.548;2023-07-13T07:59:51;18.58;;;13.80;;
77466;SDS011;66564;42.482;25.548;2023-07-13T08:02:16;19.92;;;13.75;;
77466;SDS011;66564;42.482;25.548;2023-07-13T08:04:41;17.95;;;12.65;;
77466;SDS011;66564;42.482;25.548;2023-07-13T08:07:07;15.15;;;12.57;;
77466;SDS011;66564;42.482;25.548;2023-07-13T08:09:33;19.15;;;13.88;;
77466;SDS011;66564;42.482;25.548;2023-07-13T08:11:59;18.05;;;13.45;;
77466;SDS011;66564;42.482;25.548;2023-07-13T08:14:24;20.23;;;13.50;;
77466;SDS011;66564;42.482;25.548;2023-07-13T08:16:50;18.90;;;13.10;;
77466;SDS011;66564;42.482;25.548;2023-07-13T08:19:15;16.52;;;12.75;;
77466;SDS011;66564;42.482;25.548;2023-07-13T08:21:41;18.15;;;14.68;;
77466;SDS011;66564;42.482;25.548;2023-07-13T08:24:08;18.35;;;12.48;;
77466;SDS011;66564;42.482;25.548;2023-07-13T08:26:34;17.48;;;14.52;;
77466;SDS011;66564;42.482;25.548;2023-07-13T08:28:59;17.20;;;13.30;;
77466;SDS011;66564;42.482;25.548;2023-07-13T08:31:25;15.52;;;13.52;;
77466;SDS011;66564;42.482;25.548;2023-07-13T08:33:50;16.48;;;13.07;;
77466;SDS011;66564;42.482;25.548;2023-07-13T08:36:16;17.95;;;14.68;;
77466;SDS011;66564;42.482;25.548;2023-07-13T08:38:41;17.75;;;13.00;;
77466;SDS011;66564;42.482;25.548;2023-07-13T08:41:17;19.20;;;13.43;;
77466;SDS011;66564;42.482;25.548;2023-07-13T08:43:45;17.17;;;13.15;;
77466;SDS011;66564;42.482;25.548;2023-07-13T08:46:21;29.90;;;14.70;;
77466;SDS011;66564;42.482;25.548;2023-07-13T08:54:05;15.75;;;13.20;;
77466;SDS011;66564;42.482;25.548;2023-07-13T08:56:43;26.33;;;13.95;;
77466;SDS011;66564;42.482;25.548;2023-07-13T08:59:11;15.98;;;13.88;;
77466;SDS011;66564;42.482;25.548;2023-07-13T09:01:58;19.92;;;14.30;;
77466;SDS011;66564;42.482;25.548;2023-07-13T09:04:37;23.00;;;12.95;;
77466;SDS011;66564;42.482;25.548;2023-07-13T09:10:15;24.70;;;14.43;;
77466;SDS011;66564;42.482;25.548;2023-07-13T09:15:17;23.42;;;14.02;;
77466;SDS011;66564;42.482;25.548;2023-07-13T09:17:50;20.02;;;13.70;;
77466;SDS011;66564;42.482;25.548;2023-07-13T09:23:30;22.15;;;13.63;;
77466;SDS011;66564;42.482;25.548;2023-07-13T09:26:01;20.02;;;12.88;;
77466;SDS011;66564;42.482;25.548;2023-07-13T09:28:33;17.92;;;13.43;;
77466;SDS011;66564;42.482;25.548;2023-07-13T09:31:24;16.67;;;13.15;;
77466;SDS011;66564;42.482;25.548;2023-07-13T09:33:59;13.75;;;11.80;;
77466;SDS011;66564;42.482;25.548;2023-07-13T09:36:28;16.05;;;12.85;;
77466;SDS011;66564;42.482;25.548;2023-07-13T09:50:01;18.45;;;12.57;;
77466;SDS011;66564;42.482;25.548;2023-07-13T09:52:39;42.75;;;13.57;;
77466;SDS011;66564;42.482;25.548;2023-07-13T09:55:22;19.70;;;11.95;;
77466;SDS011;66564;42.482;25.548;2023-07-13T09:57:50;14.25;;;11.55;;
77466;SDS011;66564;42.482;25.548;2023-07-13T10:00:24;17.17;;;11.52;;
77466;SDS011;66564;42.482;25.548;2023-07-13T10:05:37;17.52;;;11.82;;
77466;SDS011;66564;42.482;25.548;2023-07-13T10:08:14;14.35;;;10.80;;
77466;SDS011;66564;42.482;25.548;2023-07-13T10:11:01;14.00;;;10.20;;
77466;SDS011;66564;42.482;25.548;2023-07-13T10:13:41;14.10;;;10.63;;
77466;SDS011;66564;42.482;25.548;2023-07-13T10:16:09;13.05;;;11.30;;
77466;SDS011;66564;42.482;25.548;2023-07-13T10:18:39;14.25;;;11.82;;
77466;SDS011;66564;42.482;25.548;2023-07-13T10:21:18;16.02;;;11.80;;
77466;SDS011;66564;42.482;25.548;2023-07-13T10:24:10;14.50;;;12.25;;
77466;SDS011;66564;42.482;25.548;2023-07-13T10:27:20;15.63;;;11.73;;
77466;SDS011;66564;42.482;25.548;2023-07-13T10:30:15;17.15;;;11.02;;
77466;SDS011;66564;42.482;25.548;2023-07-13T10:33:03;19.48;;;11.60;;
77466;SDS011;66564;42.482;25.548;2023-07-13T10:35:40;12.93;;;10.30;;
77466;SDS011;66564;42.482;25.548;2023-07-13T10:38:15;13.82;;;10.60;;
77466;SDS011;66564;42.482;25.548;2023-07-13T10:40:56;15.93;;;10.80;;
77466;SDS011;66564;42.482;25.548;2023-07-13T10:43:26;13.00;;;9.27;;
77466;SDS011;66564;42.482;25.548;2023-07-13T10:45:59;13.48;;;9.70;;
77466;SDS011;66564;42.482;25.548;2023-07-13T10:48:26;14.82;;;9.38;;
77466;SDS011;66564;42.482;25.548;2023-07-13T10:50:54;13.93;;;9.23;;
77466;SDS011;66564;42.482;25.548;2023-07-13T10:55:56;11.65;;;8.90;;
77466;SDS011;66564;42.482;25.548;2023-07-13T10:58:31;10.52;;;8.77;;
77466;SDS011;66564;42.482;25.548;2023-07-13T11:04:00;14.48;;;10.25;;
77466;SDS011;66564;42.482;25.548;2023-07-13T11:08:58;15.48;;;9.65;;
77466;SDS011;66564;42.482;25.548;2023-07-13T11:14:00;15.15;;;9.00;;
77466;SDS011;66564;42.482;25.548;2023-07-13T11:16:49;15.48;;;8.07;;
77466;SDS011;66564;42.482;25.548;2023-07-13T11:30:23;13.90;;;9.15;;
77466;SDS011;66564;42.482;25.548;2023-07-13T11:40:58;9.73;;;8.07;;
77466;SDS011;66564;42.482;25.548;2023-07-13T11:43:29;9.82;;;7.95;;
77466;SDS011;66564;42.482;25.548;2023-07-13T11:45:54;14.30;;;8.48;;
77466;SDS011;66564;42.482;25.548;2023-07-13T11:48:21;16.75;;;8.23;;
77466;SDS011;66564;42.482;25.548;2023-07-13T11:50:52;10.55;;;7.65;;
77466;SDS011;66564;42.482;25.548;2023-07-13T11:53:20;10.40;;;8.45;;
77466;SDS011;66564;42.482;25.548;2023-07-13T11:55:46;11.95;;;8.35;;
77466;SDS011;66564;42.482;25.548;2023-07-13T11:58:14;10.57;;;9.48;;
77466;SDS011;66564;42.482;25.548;2023-07-13T12:00:44;13.68;;;9.02;;
77466;SDS011;66564;42.482;25.548;2023-07-13T12:03:10;11.40;;;8.77;;
77466;SDS011;66564;42.482;25.548;2023-07-13T12:05:37;15.25;;;9.27;;
77466;SDS011;66564;42.482;25.548;2023-07-13T12:08:09;13.50;;;8.15;;
77466;SDS011;66564;42.482;25.548;2023-07-13T12:10:38;52.78;;;11.88;;
77466;SDS011;66564;42.482;25.548;2023-07-13T12:13:04;21.95;;;8.85;;
77466;SDS011;66564;42.482;25.548;2023-07-13T12:15:50;38.60;;;10.73;;
77466;SDS011;66564;42.482;25.548;2023-07-13T12:18:20;13.77;;;9.23;;
77466;SDS011;66564;42.482;25.548;2023-07-13T12:20:49;12.90;;;8.98;;
77466;SDS011;66564;42.482;25.548;2023-07-13T12:23:25;15.30;;;9.48;;
77466;SDS011;66564;42.482;25.548;2023-07-13T12:25:55;16.48;;;10.05;;
77466;SDS011;66564;42.482;25.548;2023-07-13T12:28:45;17.55;;;9.43;;
77466;SDS011;66564;42.482;25.548;2023-07-13T12:34:03;14.32;;;9.63;;
77466;SDS011;66564;42.482;25.548;2023-07-13T12:36:33;14.85;;;9.50;;
77466;SDS011;66564;42.482;25.548;2023-07-13T12:39:03;14.07;;;10.00;;
77466;SDS011;66564;42.482;25.548;2023-07-13T12:41:37;16.75;;;9.73;;
77466;SDS011;66564;42.482;25.548;2023-07-13T12:44:04;11.45;;;10.23;;
77466;SDS011;66564;42.482;25.548;2023-07-13T12:46:39;13.98;;;10.07;;
77466;SDS011;66564;42.482;25.548;2023-07-13T12:49:23;19.45;;;11.38;;
77466;SDS011;66564;42.482;25.548;2023-07-13T12:51:55;21.80;;;10.45;;
77466;SDS011;66564;42.482;25.548;2023-07-13T12:54:22;15.55;;;9.77;;
77466;SDS011;66564;42.482;25.548;2023-07-13T12:56:51;13.45;;;9.40;;
77466;SDS011;66564;42.482;25.548;2023-07-13T12:59:19;12.48;;;9.18;;
77466;SDS011;66564;42.482;25.548;2023-07-13T13:01:46;13.23;;;10.07;;
77466;SDS011;66564;42.482;25.548;2023-07-13T13:04:14;13.90;;;9.75;;
77466;SDS011;66564;42.482;25.548;2023-07-13T13:06:40;11.52;;;9.73;;
77466;SDS011;66564;42.482;25.548;2023-07-13T13:09:12;11.43;;;9.57;;
77466;SDS011;66564;42.482;25.548;2023-07-13T13:11:39;12.23;;;10.88;;
77466;SDS011;66564;42.482;25.548;2023-07-13T13:14:05;14.15;;;9.80;;
77466;SDS011;66564;42.482;25.548;2023-07-13T13:16:33;18.05;;;9.88;;
77466;SDS011;66564;42.482;25.548;2023-07-13T13:19:18;14.23;;;11.10;;
77466;SDS011;66564;42.482;25.548;2023-07-13T13:21:49;19.88;;;10.68;;
77466;SDS011;66564;42.482;25.548;2023-07-13T13:24:19;19.33;;;10.52;;
77466;SDS011;66564;42.482;25.548;2023-07-13T13:26:47;29.70;;;10.45;;
77466;SDS011;66564;42.482;25.548;2023-07-13T13:29:20;20.33;;;10.45;;
77466;SDS011;66564;42.482;25.548;2023-07-13T13:31:50;17.88;;;10.05;;
77466;SDS011;66564;42.482;25.548;2023-07-13T13:34:19;14.98;;;11.55;;
77466;SDS011;66564;42.482;25.548;2023-07-13T13:36:46;13.48;;;8.77;;
77466;SDS011;66564;42.482;25.548;2023-07-13T13:39:23;19.23;;;10.45;;
77466;SDS011;66564;42.482;25.548;2023-07-13T13:41:50;15.57;;;9.95;;
77466;SDS011;66564;42.482;25.548;2023-07-13T13:44:18;15.15;;;9.43;;
77466;SDS011;66564;42.482;25.548;2023-07-13T13:46:48;16.70;;;9.35;;
77466;SDS011;66564;42.482;25.548;2023-07-13T13:49:17;17.67;;;10.85;;
77466;SDS011;66564;42.482;25.548;2023-07-13T13:51:45;19.42;;;9.93;;
77466;SDS011;66564;42.482;25.548;2023-07-13T13:54:12;14.13;;;9.32;;
77466;SDS011;66564;42.482;25.548;2023-07-13T13:56:40;16.27;;;10.35;;
77466;SDS011;66564;42.482;25.548;2023-07-13T13:59:10;17.80;;;10.13;;
77466;SDS011;66564;42.482;25.548;2023-07-13T14:01:37;15.43;;;9.63;;
77466;SDS011;66564;42.482;25.548;2023-07-13T14:04:03;18.30;;;10.75;;
77466;SDS011;66564;42.482;25.548;2023-07-13T14:06:30;15.98;;;10.25;;
77466;SDS011;66564;42.482;25.548;2023-07-13T14:08:57;16.45;;;8.98;;
77466;SDS011;66564;42.482;25.548;2023-07-13T14:11:22;15.23;;;9.30;;
77466;SDS011;66564;42.482;25.548;2023-07-13T14:13:48;15.48;;;9.88;;
77466;SDS011;66564;42.482;25.548;2023-07-13T14:22:59;16.63;;;10.60;;
77466;SDS011;66564;42.482;25.548;2023-07-13T14:25:25;18.77;;;10.52;;
77466;SDS011;66564;42.482;25.548;2023-07-13T14:27:55;20.00;;;10.20;;
77466;SDS011;66564;42.482;25.548;2023-07-13T14:30:24;19.08;;;9.38;;
77466;SDS011;66564;42.482;25.548;2023-07-13T14:32:50;22.27;;;10.85;;
77466;SDS011;66564;42.482;25.548;2023-07-13T14:35:17;44.65;;;11.38;;
77466;SDS011;66564;42.482;25.548;2023-07-13T14:37:45;22.45;;;10.02;;
77466;SDS011;66564;42.482;25.548;2023-07-13T14:42:38;27.20;;;9.40;;
77466;SDS011;66564;42.482;25.548;2023-07-13T14:45:04;27.80;;;9.50;;
77466;SDS011;66564;42.482;25.548;2023-07-13T14:47:30;30.23;;;10.38;;
77466;SDS011;66564;42.482;25.548;2023-07-13T14:49:56;23.40;;;9.30;;
77466;SDS011;66564;42.482;25.548;2023-07-13T14:52:22;18.90;;;9.20;;
77466;SDS011;66564;42.482;25.548;2023-07-13T14:54:49;24.17;;;10.07;;
77466;SDS011;66564;42.482;25.548;2023-07-13T14:57:16;19.67;;;10.95;;
77466;SDS011;66564;42.482;25.548;2023-07-13T14:59:44;19.75;;;9.40;;
77466;SDS011;66564;42.482;25.548;2023-07-13T15:02:21;16.33;;;9.18;;
77466;SDS011;66564;42.482;25.548;2023-07-13T15:04:54;21.83;;;10.43;;
77466;SDS011;66564;42.482;25.548;2023-07-13T15:07:20;19.70;;;10.40;;
77466;SDS011;66564;42.482;25.548;2023-07-13T15:09:46;23.25;;;10.23;;
77466;SDS011;66564;42.482;25.548;2023-07-13T15:12:13;13.95;;;8.88;;
77466;SDS011;66564;42.482;25.548;2023-07-13T15:14:38;28.02;;;10.35;;
77466;SDS011;66564;42.482;25.548;2023-07-13T15:17:04;15.15;;;10.23;;
77466;SDS011;66564;42.482;25.548;2023-07-13T15:19:30;15.25;;;9.30;;
77466;SDS011;66564;42.482;25.548;2023-07-13T15:21:57;18.35;;;9.45;;
77466;SDS011;66564;42.482;25.548;2023-07-13T15:24:23;17.90;;;9.20;;
77466;SDS011;66564;42.482;25.548;2023-07-13T15:26:49;16.98;;;9.13;;
77466;SDS011;66564;42.482;25.548;2023-07-13T15:29:15;27.65;;;10.60;;